sensor_id;sensor_type;location;lat;lon;timestamp;temperature;humidity
49148;DHT22;41980;45.550;12.070;2023-04-15T00:02:47;9.00;74.50
49148;DHT22;41980;45.550;12.070;2023-04-15T00:08:49;9.00;73.20
49148;DHT22;41980;45.550;12.070;2023-04-15T00:14:50;9.00;75.60
49148;DHT22;41980;45.550;12.070;2023-04-15T00:20:52;9.00;77.90
49148;DHT22;41980;45.550;12.070;2023-04-15T00:26:54;8.90;74.70
49148;DHT22;41980;45.550;12.070;2023-04-15T00:32:56;8.80;74.30
49148;DHT22;41980;45.550;12.070;2023-04-15T00:38:57;8.80;74.90
49148;DHT22;41980;45.550;12.070;2023-04-15T00:44:59;8.70;75.00
49148;DHT22;41980;45.550;12.070;2023-04-15T00:51:01;8.60;74.30
49148;DHT22;41980;45.550;12.070;2023-04-15T00:57:04;8.60;74.30
49148;DHT22;41980;45.550;12.070;2023-04-15T01:03:05;8.50;74.60
49148;DHT22;41980;45.550;12.070;2023-04-15T01:09:07;8.50;76.40
49148;DHT22;41980;45.550;12.070;2023-04-15T01:15:09;8.50;77.80
49148;DHT22;41980;45.550;12.070;2023-04-15T01:21:11;8.40;76.20
49148;DHT22;41980;45.550;12.070;2023-04-15T01:27:15;8.40;76.00
49148;DHT22;41980;45.550;12.070;2023-04-15T01:33:16;8.50;77.90
49148;DHT22;41980;45.550;12.070;2023-04-15T01:39:20;8.50;78.60
49148;DHT22;41980;45.550;12.070;2023-04-15T01:45:22;8.40;77.20
49148;DHT22;41980;45.550;12.070;2023-04-15T01:51:24;8.40;77.50
49148;DHT22;41980;45.550;12.070;2023-04-15T01:57:25;8.50;78.00
49148;DHT22;41980;45.550;12.070;2023-04-15T02:03:27;8.50;78.10
49148;DHT22;41980;45.550;12.070;2023-04-15T02:09:30;8.50;77.20
49148;DHT22;41980;45.550;12.070;2023-04-15T02:15:31;8.60;78.30
49148;DHT22;41980;45.550;12.070;2023-04-15T02:21:33;8.60;78.20
49148;DHT22;41980;45.550;12.070;2023-04-15T02:27:35;8.50;77.30
49148;DHT22;41980;45.550;12.070;2023-04-15T02:33:37;8.50;77.80
49148;DHT22;41980;45.550;12.070;2023-04-15T02:39:39;8.50;78.10
49148;DHT22;41980;45.550;12.070;2023-04-15T02:45:40;8.50;78.90
49148;DHT22;41980;45.550;12.070;2023-04-15T02:51:43;8.40;77.00
49148;DHT22;41980;45.550;12.070;2023-04-15T02:57:49;8.40;79.00
49148;DHT22;41980;45.550;12.070;2023-04-15T03:03:51;8.40;78.80
49148;DHT22;41980;45.550;12.070;2023-04-15T03:09:53;8.40;77.70
49148;DHT22;41980;45.550;12.070;2023-04-15T03:15:55;8.40;76.90
49148;DHT22;41980;45.550;12.070;2023-04-15T03:21:58;8.30;77.70
49148;DHT22;41980;45.550;12.070;2023-04-15T03:28:01;8.20;79.10
49148;DHT22;41980;45.550;12.070;2023-04-15T03:34:04;8.10;78.00
49148;DHT22;41980;45.550;12.070;2023-04-15T03:40:05;8.10;78.70
49148;DHT22;41980;45.550;12.070;2023-04-15T03:46:08;8.10;77.60
49148;DHT22;41980;45.550;12.070;2023-04-15T03:52:09;8.10;77.70
49148;DHT22;41980;45.550;12.070;2023-04-15T03:58:11;8.10;77.70
49148;DHT22;41980;45.550;12.070;2023-04-15T04:04:13;8.10;80.10
49148;DHT22;41980;45.550;12.070;2023-04-15T04:10:14;8.10;78.40
49148;DHT22;41980;45.550;12.070;2023-04-15T04:16:16;8.20;78.60
49148;DHT22;41980;45.550;12.070;2023-04-15T04:22:21;8.20;78.40
49148;DHT22;41980;45.550;12.070;2023-04-15T04:28:23;8.20;79.80
49148;DHT22;41980;45.550;12.070;2023-04-15T04:34:24;8.30;79.60
49148;DHT22;41980;45.550;12.070;2023-04-15T04:40:26;8.50;81.80
49148;DHT22;41980;45.550;12.070;2023-04-15T04:46:28;8.60;81.30
49148;DHT22;41980;45.550;12.070;2023-04-15T04:52:30;8.70;79.40
49148;DHT22;41980;45.550;12.070;2023-04-15T04:58:32;8.90;81.70
49148;DHT22;41980;45.550;12.070;2023-04-15T05:04:33;9.00;78.60
49148;DHT22;41980;45.550;12.070;2023-04-15T05:10:35;9.20;78.60
49148;DHT22;41980;45.550;12.070;2023-04-15T05:16:37;9.50;78.30
49148;DHT22;41980;45.550;12.070;2023-04-15T05:22:39;9.90;80.70
49148;DHT22;41980;45.550;12.070;2023-04-15T05:28:41;10.50;79.40
49148;DHT22;41980;45.550;12.070;2023-04-15T05:34:43;11.80;76.90
49148;DHT22;41980;45.550;12.070;2023-04-15T05:40:44;11.90;76.30
49148;DHT22;41980;45.550;12.070;2023-04-15T05:46:46;12.00;76.00
49148;DHT22;41980;45.550;12.070;2023-04-15T05:52:48;12.20;76.30
49148;DHT22;41980;45.550;12.070;2023-04-15T05:58:49;11.90;76.20
49148;DHT22;41980;45.550;12.070;2023-04-15T06:04:51;11.80;76.10
49148;DHT22;41980;45.550;12.070;2023-04-15T06:10:54;11.80;76.50
49148;DHT22;41980;45.550;12.070;2023-04-15T06:16:56;11.80;76.20
49148;DHT22;41980;45.550;12.070;2023-04-15T06:22:57;11.90;76.40
49148;DHT22;41980;45.550;12.070;2023-04-15T06:28:59;12.10;77.20
49148;DHT22;41980;45.550;12.070;2023-04-15T06:35:01;12.20;77.00
49148;DHT22;41980;45.550;12.070;2023-04-15T06:41:04;12.30;75.90
49148;DHT22;41980;45.550;12.070;2023-04-15T06:47:06;12.50;76.00
49148;DHT22;41980;45.550;12.070;2023-04-15T06:53:07;13.00;75.70
49148;DHT22;41980;45.550;12.070;2023-04-15T06:59:09;13.20;74.90
49148;DHT22;41980;45.550;12.070;2023-04-15T07:05:11;13.30;74.40
49148;DHT22;41980;45.550;12.070;2023-04-15T07:11:13;13.60;73.90
49148;DHT22;41980;45.550;12.070;2023-04-15T07:17:14;13.30;74.10
49148;DHT22;41980;45.550;12.070;2023-04-15T07:23:16;13.40;74.20
49148;DHT22;41980;45.550;12.070;2023-04-15T07:29:18;13.80;73.60
49148;DHT22;41980;45.550;12.070;2023-04-15T07:35:20;15.00;73.40
49148;DHT22;41980;45.550;12.070;2023-04-15T07:41:22;15.20;69.90
49148;DHT22;41980;45.550;12.070;2023-04-15T07:47:24;15.10;70.90
49148;DHT22;41980;45.550;12.070;2023-04-15T07:53:26;15.10;70.30
49148;DHT22;41980;45.550;12.070;2023-04-15T07:59:28;14.80;69.70
49148;DHT22;41980;45.550;12.070;2023-04-15T08:05:31;15.00;70.90
49148;DHT22;41980;45.550;12.070;2023-04-15T08:11:33;15.60;68.90
49148;DHT22;41980;45.550;12.070;2023-04-15T08:17:35;15.70;68.60
49148;DHT22;41980;45.550;12.070;2023-04-15T08:23:37;16.60;67.00
49148;DHT22;41980;45.550;12.070;2023-04-15T08:29:41;16.40;66.30
49148;DHT22;41980;45.550;12.070;2023-04-15T08:35:45;16.20;67.30
49148;DHT22;41980;45.550;12.070;2023-04-15T08:47:51;16.20;67.30
49148;DHT22;41980;45.550;12.070;2023-04-15T08:53:56;17.40;67.30
49148;DHT22;41980;45.550;12.070;2023-04-15T08:59:58;16.90;64.30
49148;DHT22;41980;45.550;12.070;2023-04-15T09:06:03;16.50;66.20
49148;DHT22;41980;45.550;12.070;2023-04-15T09:12:06;16.50;65.70
49148;DHT22;41980;45.550;12.070;2023-04-15T09:18:10;16.40;64.30
49148;DHT22;41980;45.550;12.070;2023-04-15T09:24:12;16.20;64.80
49148;DHT22;41980;45.550;12.070;2023-04-15T09:30:14;16.20;65.40
49148;DHT22;41980;45.550;12.070;2023-04-15T09:36:17;17.10;63.90
49148;DHT22;41980;45.550;12.070;2023-04-15T09:42:18;17.30;62.90
49148;DHT22;41980;45.550;12.070;2023-04-15T09:48:24;17.30;62.10
49148;DHT22;41980;45.550;12.070;2023-04-15T10:00:33;18.10;60.20
49148;DHT22;41980;45.550;12.070;2023-04-15T10:06:36;18.40;59.20
49148;DHT22;41980;45.550;12.070;2023-04-15T10:12:38;18.30;60.40
49148;DHT22;41980;45.550;12.070;2023-04-15T10:18:42;18.30;60.00
49148;DHT22;41980;45.550;12.070;2023-04-15T10:24:45;18.50;59.80
49148;DHT22;41980;45.550;12.070;2023-04-15T10:30:48;17.70;59.00
49148;DHT22;41980;45.550;12.070;2023-04-15T10:36:50;17.10;60.20
49148;DHT22;41980;45.550;12.070;2023-04-15T10:42:57;16.70;60.00
49148;DHT22;41980;45.550;12.070;2023-04-15T10:48:59;16.50;60.20
49148;DHT22;41980;45.550;12.070;2023-04-15T11:01:12;16.70;60.50
49148;DHT22;41980;45.550;12.070;2023-04-15T11:07:13;16.80;60.50
49148;DHT22;41980;45.550;12.070;2023-04-15T11:13:16;16.60;60.70
49148;DHT22;41980;45.550;12.070;2023-04-15T11:19:18;16.50;59.90
49148;DHT22;41980;45.550;12.070;2023-04-15T11:25:22;16.40;60.10
49148;DHT22;41980;45.550;12.070;2023-04-15T11:31:25;16.40;59.00
49148;DHT22;41980;45.550;12.070;2023-04-15T11:37:28;16.40;59.60
49148;DHT22;41980;45.550;12.070;2023-04-15T11:43:30;16.50;58.70
49148;DHT22;41980;45.550;12.070;2023-04-15T11:49:32;16.60;59.30
49148;DHT22;41980;45.550;12.070;2023-04-15T12:01:40;17.00;58.60
49148;DHT22;41980;45.550;12.070;2023-04-15T12:13:49;17.00;56.70
49148;DHT22;41980;45.550;12.070;2023-04-15T12:19:55;17.00;57.10
49148;DHT22;41980;45.550;12.070;2023-04-15T12:25:57;16.80;57.40
49148;DHT22;41980;45.550;12.070;2023-04-15T12:32:03;16.80;56.80
49148;DHT22;41980;45.550;12.070;2023-04-15T12:38:06;16.80;57.10
49148;DHT22;41980;45.550;12.070;2023-04-15T12:44:09;16.80;55.80
49148;DHT22;41980;45.550;12.070;2023-04-15T12:50:11;16.90;55.70
49148;DHT22;41980;45.550;12.070;2023-04-15T12:56:13;16.90;56.40
49148;DHT22;41980;45.550;12.070;2023-04-15T13:02:15;16.90;55.20
49148;DHT22;41980;45.550;12.070;2023-04-15T13:08:17;16.90;55.30
49148;DHT22;41980;45.550;12.070;2023-04-15T13:14:19;16.90;55.10
49148;DHT22;41980;45.550;12.070;2023-04-15T13:20:21;17.10;56.00
49148;DHT22;41980;45.550;12.070;2023-04-15T13:26:23;17.10;57.10
49148;DHT22;41980;45.550;12.070;2023-04-15T13:32:25;16.90;57.40
49148;DHT22;41980;45.550;12.070;2023-04-15T13:38:27;16.70;58.60
49148;DHT22;41980;45.550;12.070;2023-04-15T13:44:28;17.00;58.60
49148;DHT22;41980;45.550;12.070;2023-04-15T13:50:30;17.30;58.10
49148;DHT22;41980;45.550;12.070;2023-04-15T13:56:32;17.40;58.10
49148;DHT22;41980;45.550;12.070;2023-04-15T14:02:34;17.30;58.40
49148;DHT22;41980;45.550;12.070;2023-04-15T14:08:36;17.10;58.80
49148;DHT22;41980;45.550;12.070;2023-04-15T14:14:38;17.00;58.50
49148;DHT22;41980;45.550;12.070;2023-04-15T14:20:39;16.90;57.30
49148;DHT22;41980;45.550;12.070;2023-04-15T14:26:41;16.80;57.20
49148;DHT22;41980;45.550;12.070;2023-04-15T14:32:44;16.70;56.00
49148;DHT22;41980;45.550;12.070;2023-04-15T14:38:46;16.60;56.00
49148;DHT22;41980;45.550;12.070;2023-04-15T14:44:48;16.50;55.90
49148;DHT22;41980;45.550;12.070;2023-04-15T14:50:51;16.20;53.90
49148;DHT22;41980;45.550;12.070;2023-04-15T14:56:52;15.90;53.70
49148;DHT22;41980;45.550;12.070;2023-04-15T15:02:54;15.30;55.60
49148;DHT22;41980;45.550;12.070;2023-04-15T15:08:56;14.20;59.70
49148;DHT22;41980;45.550;12.070;2023-04-15T15:14:58;13.70;62.00
49148;DHT22;41980;45.550;12.070;2023-04-15T15:21:00;13.80;60.80
49148;DHT22;41980;45.550;12.070;2023-04-15T15:27:01;14.00;60.70
49148;DHT22;41980;45.550;12.070;2023-04-15T15:33:03;14.20;60.60
49148;DHT22;41980;45.550;12.070;2023-04-15T15:39:05;14.40;61.70
49148;DHT22;41980;45.550;12.070;2023-04-15T15:45:07;14.50;60.90
49148;DHT22;41980;45.550;12.070;2023-04-15T15:51:09;14.60;61.80
49148;DHT22;41980;45.550;12.070;2023-04-15T15:57:11;14.60;62.20
49148;DHT22;41980;45.550;12.070;2023-04-15T16:03:13;14.60;62.10
49148;DHT22;41980;45.550;12.070;2023-04-15T16:09:15;14.60;61.90
49148;DHT22;41980;45.550;12.070;2023-04-15T16:15:17;14.50;61.90
49148;DHT22;41980;45.550;12.070;2023-04-15T16:21:19;14.20;62.40
49148;DHT22;41980;45.550;12.070;2023-04-15T16:27:21;14.10;62.80
49148;DHT22;41980;45.550;12.070;2023-04-15T16:33:23;14.10;63.10
49148;DHT22;41980;45.550;12.070;2023-04-15T16:39:25;14.00;63.30
49148;DHT22;41980;45.550;12.070;2023-04-15T16:45:27;13.90;64.00
49148;DHT22;41980;45.550;12.070;2023-04-15T16:51:29;13.80;64.30
49148;DHT22;41980;45.550;12.070;2023-04-15T16:57:32;13.70;64.90
49148;DHT22;41980;45.550;12.070;2023-04-15T17:03:34;13.70;65.00
49148;DHT22;41980;45.550;12.070;2023-04-15T17:09:37;13.60;65.20
49148;DHT22;41980;45.550;12.070;2023-04-15T17:15:40;13.60;65.40
49148;DHT22;41980;45.550;12.070;2023-04-15T17:21:41;13.60;65.10
49148;DHT22;41980;45.550;12.070;2023-04-15T17:27:43;13.60;65.50
49148;DHT22;41980;45.550;12.070;2023-04-15T17:33:45;13.70;65.10
49148;DHT22;41980;45.550;12.070;2023-04-15T17:39:47;13.70;65.20
49148;DHT22;41980;45.550;12.070;2023-04-15T17:45:49;13.60;64.80
49148;DHT22;41980;45.550;12.070;2023-04-15T17:51:51;13.50;64.90
49148;DHT22;41980;45.550;12.070;2023-04-15T17:57:55;13.50;65.20
49148;DHT22;41980;45.550;12.070;2023-04-15T18:03:57;13.30;64.90
49148;DHT22;41980;45.550;12.070;2023-04-15T18:09:59;13.20;64.40
49148;DHT22;41980;45.550;12.070;2023-04-15T18:16:01;13.00;64.30
49148;DHT22;41980;45.550;12.070;2023-04-15T18:22:02;12.90;63.60
49148;DHT22;41980;45.550;12.070;2023-04-15T18:28:04;12.70;64.30
49148;DHT22;41980;45.550;12.070;2023-04-15T18:34:06;12.50;64.60
49148;DHT22;41980;45.550;12.070;2023-04-15T18:40:08;12.30;65.10
49148;DHT22;41980;45.550;12.070;2023-04-15T18:46:10;12.20;66.30
49148;DHT22;41980;45.550;12.070;2023-04-15T18:52:13;12.00;66.00
49148;DHT22;41980;45.550;12.070;2023-04-15T18:58:15;11.90;66.40
49148;DHT22;41980;45.550;12.070;2023-04-15T19:04:18;11.80;67.00
49148;DHT22;41980;45.550;12.070;2023-04-15T19:10:20;11.70;67.40
49148;DHT22;41980;45.550;12.070;2023-04-15T19:16:22;11.60;68.40
49148;DHT22;41980;45.550;12.070;2023-04-15T19:22:24;11.50;67.90
49148;DHT22;41980;45.550;12.070;2023-04-15T19:28:29;11.50;68.10
49148;DHT22;41980;45.550;12.070;2023-04-15T19:34:31;11.40;68.60
49148;DHT22;41980;45.550;12.070;2023-04-15T19:40:33;11.40;69.20
49148;DHT22;41980;45.550;12.070;2023-04-15T19:46:35;11.30;68.20
49148;DHT22;41980;45.550;12.070;2023-04-15T19:52:36;11.30;68.90
49148;DHT22;41980;45.550;12.070;2023-04-15T19:58:38;11.20;70.20
49148;DHT22;41980;45.550;12.070;2023-04-15T20:04:40;11.20;69.70
49148;DHT22;41980;45.550;12.070;2023-04-15T20:10:41;11.10;70.10
49148;DHT22;41980;45.550;12.070;2023-04-15T20:16:43;11.00;70.30
49148;DHT22;41980;45.550;12.070;2023-04-15T20:22:45;11.00;70.00
49148;DHT22;41980;45.550;12.070;2023-04-15T20:28:47;10.90;70.40
49148;DHT22;41980;45.550;12.070;2023-04-15T20:34:49;10.90;70.70
49148;DHT22;41980;45.550;12.070;2023-04-15T20:40:51;10.80;71.90
49148;DHT22;41980;45.550;12.070;2023-04-15T20:46:53;10.80;71.20
49148;DHT22;41980;45.550;12.070;2023-04-15T20:52:55;10.70;71.20
49148;DHT22;41980;45.550;12.070;2023-04-15T20:58:57;10.70;73.40
49148;DHT22;41980;45.550;12.070;2023-04-15T21:04:59;10.60;71.90
49148;DHT22;41980;45.550;12.070;2023-04-15T21:11:01;10.50;72.40
49148;DHT22;41980;45.550;12.070;2023-04-15T21:17:03;10.50;72.90
49148;DHT22;41980;45.550;12.070;2023-04-15T21:23:07;10.40;73.80
49148;DHT22;41980;45.550;12.070;2023-04-15T21:29:09;10.30;74.30
49148;DHT22;41980;45.550;12.070;2023-04-15T21:35:12;10.20;72.80
49148;DHT22;41980;45.550;12.070;2023-04-15T21:41:14;10.10;71.80
49148;DHT22;41980;45.550;12.070;2023-04-15T21:47:16;10.10;75.00
49148;DHT22;41980;45.550;12.070;2023-04-15T21:53:17;10.00;73.80
49148;DHT22;41980;45.550;12.070;2023-04-15T21:59:20;9.90;74.00
49148;DHT22;41980;45.550;12.070;2023-04-15T22:05:22;9.90;72.90
49148;DHT22;41980;45.550;12.070;2023-04-15T22:11:23;9.80;73.30
49148;DHT22;41980;45.550;12.070;2023-04-15T22:17:27;9.80;73.70
49148;DHT22;41980;45.550;12.070;2023-04-15T22:23:29;9.70;73.40
49148;DHT22;41980;45.550;12.070;2023-04-15T22:29:31;9.70;73.70
49148;DHT22;41980;45.550;12.070;2023-04-15T22:35:33;9.70;73.60
49148;DHT22;41980;45.550;12.070;2023-04-15T22:41:35;9.70;74.10
49148;DHT22;41980;45.550;12.070;2023-04-15T22:47:36;9.70;73.20
49148;DHT22;41980;45.550;12.070;2023-04-15T22:53:38;9.70;73.70
49148;DHT22;41980;45.550;12.070;2023-04-15T22:59:40;9.60;72.80
49148;DHT22;41980;45.550;12.070;2023-04-15T23:05:45;9.50;75.10
49148;DHT22;41980;45.550;12.070;2023-04-15T23:11:47;9.50;74.10
49148;DHT22;41980;45.550;12.070;2023-04-15T23:17:48;9.40;72.90
49148;DHT22;41980;45.550;12.070;2023-04-15T23:23:50;9.30;73.10
49148;DHT22;41980;45.550;12.070;2023-04-15T23:29:52;9.20;75.20
49148;DHT22;41980;45.550;12.070;2023-04-15T23:35:54;9.20;75.30
49148;DHT22;41980;45.550;12.070;2023-04-15T23:41:55;9.10;73.90
49148;DHT22;41980;45.550;12.070;2023-04-15T23:47:57;9.10;72.80
49148;DHT22;41980;45.550;12.070;2023-04-15T23:53:59;9.00;72.70
